Time;durP1;ratioP1;P1;durP2;ratioP2;P2;SDS_P1;SDS_P2;PMS_P1;PMS_P2;Temp;Humidity;BMP_temperature;BMP_pressure;BME280_temperature;BME280_humidity;BME280_pressure;Samples;Min_cycle;Max_cycle;Signal;HPM_P1;HPM_P2
2023/06/01 00:00:56;;;;;;;6.10;5.07;;;;;;;13.08;100.00;99539.84;5076961;28;20584;-80
2023/06/01 00:03:25;;;;;;;5.20;4.80;;;;;;;13.04;100.00;99542.22;5068425;28;20212;-80
2023/06/01 00:05:52;;;;;;;5.67;4.93;;;;;;;12.97;100.00;99533.44;5068388;28;20200;-79
2023/06/01 00:08:20;;;;;;;5.67;5.17;;;;;;;12.93;100.00;99534.97;5071216;28;20239;-80
2023/06/01 00:10:48;;;;;;;6.77;5.27;;;;;;;12.92;100.00;99532.53;5075001;28;20200;-81
2023/06/01 00:13:16;;;;;;;6.83;5.77;;;;;;;12.84;100.00;99535.56;5057646;28;20199;-80
2023/06/01 00:15:44;;;;;;;5.93;5.27;;;;;;;12.82;100.00;99530.47;5066909;28;20235;-81
2023/06/01 00:18:15;;;;;;;5.87;5.27;;;;;;;12.82;100.00;99537.69;5075555;28;20200;-80
2023/06/01 00:20:44;;;;;;;6.47;5.67;;;;;;;12.74;100.00;99536.16;5071434;28;20211;-80
2023/06/01 00:23:11;;;;;;;7.20;5.67;;;;;;;12.68;100.00;99529.06;5063488;28;20205;-80
2023/06/01 00:25:38;;;;;;;5.87;4.70;;;;;;;12.70;100.00;99526.94;5078185;28;20249;-80
2023/06/01 00:28:04;;;;;;;5.60;5.17;;;;;;;12.66;100.00;99525.78;5062913;28;20193;-80
2023/06/01 00:30:32;;;;;;;5.77;5.10;;;;;;;12.66;100.00;99531.16;5058713;28;20203;-80
2023/06/01 00:32:59;;;;;;;6.43;5.00;;;;;;;12.68;100.00;99526.38;5056470;28;20227;-80
2023/06/01 00:35:26;;;;;;;5.50;4.97;;;;;;;12.68;100.00;99524.50;5057419;28;20192;-79
2023/06/01 00:37:52;;;;;;;6.53;5.23;;;;;;;12.65;100.00;99527.66;5061675;28;20202;-79
2023/06/01 00:40:21;;;;;;;7.17;6.00;;;;;;;12.69;100.00;99528.81;5069635;28;20248;-79
2023/06/01 00:42:48;;;;;;;5.97;5.30;;;;;;;12.68;100.00;99521.81;5061988;28;20269;-80
2023/06/01 00:45:15;;;;;;;5.80;5.20;;;;;;;12.69;100.00;99528.03;5072132;28;20225;-79
2023/06/01 00:47:43;;;;;;;6.10;5.50;;;;;;;12.70;100.00;99540.38;5066925;28;20596;-79
2023/06/01 00:50:12;;;;;;;6.30;5.70;;;;;;;12.71;100.00;99524.03;5054990;28;20196;-79
2023/06/01 00:52:40;;;;;;;6.23;5.30;;;;;;;12.71;100.00;99515.16;5058889;28;20189;-79
2023/06/01 00:55:07;;;;;;;5.97;5.37;;;;;;;12.77;100.00;99520.41;5065198;28;20222;-80
2023/06/01 00:57:35;;;;;;;6.57;5.50;;;;;;;12.75;100.00;99525.19;5066285;28;20284;-80
2023/06/01 01:00:08;;;;;;;7.13;5.57;;;;;;;12.71;100.00;99523.22;5063480;28;20200;-79
2023/06/01 01:02:38;;;;;;;5.70;5.20;;;;;;;12.70;100.00;99527.78;5074530;28;20193;-79
2023/06/01 01:05:12;;;;;;;5.97;5.03;;;;;;;12.65;100.00;99524.97;5065758;28;20187;-79
2023/06/01 01:08:02;;;;;;;6.43;5.77;;;;;;;12.62;100.00;99532.69;5072895;28;20310;-81
2023/06/01 01:10:33;;;;;;;5.80;5.30;;;;;;;12.54;100.00;99528.50;5080798;28;20222;-80
2023/06/01 01:13:10;;;;;;;6.17;5.57;;;;;;;12.51;100.00;99528.13;5060426;28;20216;-80
2023/06/01 01:15:40;;;;;;;5.30;4.90;;;;;;;12.52;100.00;99527.91;5084443;28;20182;-81
2023/06/01 01:18:13;;;;;;;5.93;5.43;;;;;;;12.47;100.00;99518.91;5053409;28;20190;-80
2023/06/01 01:20:42;;;;;;;6.17;5.40;;;;;;;12.44;100.00;99527.44;5080695;28;20206;-80
2023/06/01 01:23:32;;;;;;;7.77;5.60;;;;;;;12.46;100.00;99525.34;5068675;28;20207;-80
2023/06/01 01:26:15;;;;;;;6.60;5.70;;;;;;;12.36;100.00;99521.34;5071159;28;20199;-79
2023/06/01 01:28:43;;;;;;;6.10;5.60;;;;;;;12.36;100.00;99520.56;5075388;28;20188;-79
2023/06/01 01:31:13;;;;;;;5.60;5.10;;;;;;;12.30;100.00;99521.50;5081033;28;20294;-80
2023/06/01 01:33:41;;;;;;;5.80;5.20;;;;;;;12.19;100.00;99520.41;5072422;28;20218;-80
2023/06/01 01:36:09;;;;;;;5.90;5.40;;;;;;;12.28;100.00;99513.66;5061833;28;20194;-79
2023/06/01 01:38:36;;;;;;;5.80;5.20;;;;;;;12.10;100.00;99521.00;5063335;28;20219;-80
2023/06/01 01:41:03;;;;;;;5.70;5.17;;;;;;;12.13;100.00;99547.41;5051713;28;20282;-79
2023/06/01 01:43:31;;;;;;;5.63;5.10;;;;;;;12.14;100.00;99520.31;5071945;28;20710;-79
2023/06/01 01:46:26;;;;;;;5.57;5.07;;;;;;;12.11;100.00;99520.78;5068590;28;20208;-79
2023/06/01 01:49:13;;;;;;;5.57;5.07;;;;;;;12.06;100.00;99515.28;5063020;28;20205;-79
2023/06/01 01:51:57;;;;;;;7.17;5.10;;;;;;;12.01;100.00;99514.31;5053475;28;20260;-79
2023/06/01 01:54:25;;;;;;;6.40;5.07;;;;;;;11.97;100.00;99516.66;5070114;28;20203;-79
2023/06/01 01:56:53;;;;;;;6.17;5.20;;;;;;;11.98;100.00;99520.19;5062793;28;20622;-79
2023/06/01 01:59:20;;;;;;;5.50;5.03;;;;;;;11.96;100.00;99519.56;5048404;28;20212;-78
2023/06/01 02:01:47;;;;;;;5.83;5.27;;;;;;;11.90;100.00;99508.72;5073846;28;20194;-78
2023/06/01 02:04:14;;;;;;;6.93;5.43;;;;;;;11.91;100.00;99509.53;5063097;28;20215;-78
2023/06/01 02:06:41;;;;;;;6.00;5.00;;;;;;;11.87;100.00;99511.88;5059020;28;20197;-78
2023/06/01 02:09:09;;;;;;;5.57;5.03;;;;;;;11.82;100.00;99502.84;5061399;28;20258;-78
2023/06/01 02:11:36;;;;;;;5.63;4.80;;;;;;;11.79;100.00;99504.16;5065742;28;20569;-78
2023/06/01 02:14:03;;;;;;;5.57;4.93;;;;;;;11.79;100.00;99506.00;5069225;28;20195;-78
2023/06/01 02:16:30;;;;;;;5.33;4.43;;;;;;;11.75;100.00;99497.63;5065394;28;20598;-78
2023/06/01 02:18:57;;;;;;;6.03;5.43;;;;;;;11.71;100.00;99493.69;5063146;28;20190;-78
2023/06/01 02:21:25;;;;;;;6.90;5.07;;;;;;;11.72;100.00;99508.78;5068147;28;20211;-79
2023/06/01 02:23:52;;;;;;;5.60;5.10;;;;;;;11.71;100.00;99501.75;5071910;28;20221;-78
2023/06/01 02:26:18;;;;;;;5.60;5.10;;;;;;;11.77;100.00;99502.72;5061583;28;20190;-78
2023/06/01 02:28:46;;;;;;;6.20;5.60;;;;;;;11.82;100.00;99500.19;5066807;28;20191;-80
2023/06/01 02:31:14;;;;;;;6.00;5.37;;;;;;;11.78;100.00;99497.16;5063998;28;20189;-78
2023/06/01 02:33:41;;;;;;;5.90;5.30;;;;;;;11.74;100.00;99492.47;5070693;28;20206;-80
2023/06/01 02:36:07;;;;;;;5.90;5.40;;;;;;;11.73;100.00;99496.19;5070763;28;20733;-80
2023/06/01 02:38:35;;;;;;;7.10;5.60;;;;;;;11.70;100.00;99484.03;5073332;28;20192;-79
2023/06/01 02:41:01;;;;;;;5.93;5.33;;;;;;;11.68;100.00;99474.56;5077128;28;20228;-80
2023/06/01 02:43:34;;;;;;;5.73;5.23;;;;;;;11.69;100.00;99487.75;5061766;28;20253;-80
2023/06/01 02:46:01;;;;;;;6.00;5.27;;;;;;;11.65;100.00;99483.91;5048673;28;20190;-80
2023/06/01 02:48:28;;;;;;;6.00;5.50;;;;;;;11.62;100.00;99489.72;5054548;28;20286;-79
2023/06/01 02:50:55;;;;;;;7.10;5.53;;;;;;;11.58;100.00;99475.13;5063326;28;20679;-80
2023/06/01 02:53:21;;;;;;;5.90;5.30;;;;;;;11.58;100.00;99515.38;5057983;28;20217;-80
2023/06/01 02:55:48;;;;;;;6.07;5.10;;;;;;;11.51;100.00;99489.69;5069096;28;20185;-79
2023/06/01 02:58:18;;;;;;;6.60;5.10;;;;;;;11.48;100.00;99489.09;5075027;28;20195;-79
2023/06/01 03:01:00;;;;;;;5.90;5.20;;;;;;;11.42;100.00;99492.69;5072671;28;20202;-79
2023/06/01 03:03:28;;;;;;;5.57;5.07;;;;;;;11.46;100.00;99501.09;5065525;28;20205;-80
2023/06/01 03:05:55;;;;;;;6.83;5.30;;;;;;;11.48;100.00;99482.91;5054525;28;20251;-78
2023/06/01 03:08:51;;;;;;;6.23;5.20;;;;;;;11.49;100.00;99493.41;5068144;28;20273;-78
2023/06/01 03:11:48;;;;;;;5.37;4.87;;;;;;;11.55;100.00;99496.22;5061700;28;20196;-78
2023/06/01 03:14:15;;;;;;;6.00;5.40;;;;;;;11.54;100.00;99502.63;5042510;28;20214;-78
2023/06/01 03:16:42;;;;;;;5.43;4.93;;;;;;;11.61;100.00;99501.50;5064970;28;20192;-79
2023/06/01 03:19:15;;;;;;;5.70;5.10;;;;;;;11.58;100.00;99501.13;5071359;28;20274;-80
2023/06/01 03:21:46;;;;;;;6.13;5.10;;;;;;;11.53;100.00;99503.69;5058695;28;20632;-80
2023/06/01 03:24:22;;;;;;;5.37;4.87;;;;;;;;;;5076188;28;20245;-79
2023/06/01 03:26:49;;;;;;;6.53;4.93;;;;;;;11.60;nan;99494.50;5064537;28;20194;-78
2023/06/01 03:29:16;;;;;;;5.70;5.00;;;;;;;11.69;nan;99505.72;5067320;28;20728;-78
2023/06/01 03:31:43;;;;;;;6.07;5.20;;;;;;;11.70;nan;99494.78;5063153;28;20195;-79
2023/06/01 03:34:10;;;;;;;6.13;5.53;;;;;;;11.73;nan;99507.75;5064037;28;20798;-79
2023/06/01 03:36:37;;;;;;;5.73;5.13;;;;;;;11.79;nan;99503.34;5064940;28;20317;-79
2023/06/01 03:39:08;;;;;;;6.00;5.43;;;;;;;11.80;nan;99495.03;5060475;28;20182;-79
2023/06/01 03:41:36;;;;;;;8.23;5.43;;;;;;;11.87;nan;99494.94;5066868;28;20680;-79
2023/06/01 03:44:03;;;;;;;6.00;5.40;;;;;;;11.89;nan;99490.16;5063617;28;20226;-79
2023/06/01 03:46:31;;;;;;;5.80;5.20;;;;;;;11.95;nan;99488.41;5060433;28;20203;-79
2023/06/01 03:48:57;;;;;;;7.97;5.10;;;;;;;12.02;nan;99467.63;5065108;28;20187;-81
2023/06/01 03:51:39;;;;;;;7.47;5.60;;;;;;;;;;5064094;28;20198;-80
2023/06/01 03:54:06;;;;;;;5.57;5.07;;;;;;;;;;5070489;28;20210;-80
2023/06/01 03:56:35;;;;;;;7.87;5.90;;;;;;;12.18;nan;99483.88;5061590;28;20215;-80
2023/06/01 03:59:03;;;;;;;5.60;5.10;;;;;;;12.32;nan;99516.69;5062733;28;20302;-80
2023/06/01 04:01:32;;;;;;;7.63;5.20;;;;;;;12.49;nan;99506.88;5080616;28;20215;-80
2023/06/01 04:04:04;;;;;;;5.83;5.33;;;;;;;13.22;nan;99447.09;5062320;28;20215;-80
2023/06/01 04:06:35;;;;;;;6.00;5.33;;;;;;;14.70;nan;99486.09;5061155;28;20195;-80
2023/06/01 04:09:06;;;;;;;5.97;5.23;;;;;;;16.14;nan;99487.09;5062123;28;20232;-80
2023/06/01 04:11:35;;;;;;;5.37;4.60;;;;;;;17.25;nan;99488.78;5046486;28;20192;-80
2023/06/01 04:14:04;;;;;;;5.77;4.27;;;;;;;18.29;nan;99491.09;5071431;28;20207;-80
2023/06/01 04:16:32;;;;;;;5.13;4.40;;;;;;;19.22;nan;99492.16;5069557;28;20211;-80
2023/06/01 04:18:59;;;;;;;5.87;4.00;;;;;;;20.03;nan;99479.97;5068763;28;20691;-80
2023/06/01 04:21:30;;;;;;;4.53;4.13;;;;;;;20.64;nan;99474.78;5060721;28;20194;-80
2023/06/01 04:23:56;;;;;;;5.37;4.30;;;;;;;21.10;nan;99481.31;5062812;28;20212;-82
2023/06/01 04:26:25;;;;;;;5.17;4.10;;;;;;;21.65;nan;99478.16;5045491;28;20181;-80
2023/06/01 04:28:56;;;;;;;8.50;4.27;;;;;;;21.72;nan;99473.94;5045652;28;20279;-81
2023/06/01 04:31:23;;;;;;;6.07;4.67;;;;;;;21.74;nan;99477.16;5056651;28;20190;-82
2023/06/01 04:33:53;;;;;;;7.63;4.20;;;;;;;21.33;nan;99476.94;5062771;28;20200;-82
2023/06/01 04:36:25;;;;;;;6.03;3.97;;;;;;;20.48;nan;99476.06;5055515;28;20185;-81
2023/06/01 04:38:57;;;;;;;5.17;4.40;;;;;;;19.72;nan;99477.50;5052002;28;20214;-82
2023/06/01 04:41:28;;;;;;;4.27;3.50;;;;;;;19.14;nan;99467.50;5056304;28;20189;-84
2023/06/01 04:43:58;;;;;;;5.07;4.00;;;;;;;18.76;nan;99479.88;5051652;28;20210;-83
2023/06/01 04:46:26;;;;;;;5.37;4.10;;;;;;;18.44;nan;99472.88;5058965;28;20189;-83
2023/06/01 04:49:02;;;;;;;5.13;3.90;;;;;;;18.20;nan;99484.56;5070438;28;20565;-84
2023/06/01 04:51:30;;;;;;;4.83;4.00;;;;;;;18.07;nan;99475.09;5067454;28;20181;-84
2023/06/01 04:53:59;;;;;;;5.87;4.17;;;;;;;17.99;nan;99475.66;5059728;28;20192;-83
2023/06/01 04:56:29;;;;;;;5.20;4.60;;;;;;;17.97;nan;99484.03;5066470;28;20197;-84
2023/06/01 04:58:56;;;;;;;4.60;3.90;;;;;;;17.96;nan;99478.91;5059121;28;20612;-82
2023/06/01 05:01:25;;;;;;;4.97;3.93;;;;;;;17.95;nan;99471.84;5062275;28;20281;-82
2023/06/01 05:03:55;;;;;;;4.37;3.97;;;;;;;17.97;nan;99481.34;5065547;28;20182;-81
2023/06/01 05:06:24;;;;;;;5.70;4.20;;;;;;;18.03;nan;99472.13;5054222;28;20189;-81
2023/06/01 05:08:51;;;;;;;4.40;4.00;;;;;;;18.13;nan;99474.03;5037714;28;20237;-85
2023/06/01 05:11:18;;;;;;;4.27;3.80;;;;;;;18.23;nan;99468.59;5062965;28;20236;-83
2023/06/01 05:13:45;;;;;;;5.63;3.80;;;;;;;18.28;nan;99473.19;5054680;28;20185;-83
2023/06/01 05:16:12;;;;;;;4.30;3.87;;;;;;;18.43;nan;99473.97;5071465;28;20590;-83
2023/06/01 05:18:40;;;;;;;4.20;3.80;;;;;;;18.56;nan;99469.91;5054440;28;20209;-82
2023/06/01 05:21:08;;;;;;;4.67;4.07;;;;;;;18.71;nan;99471.78;5064289;28;20273;-83
2023/06/01 05:23:35;;;;;;;5.20;3.70;;;;;;;18.83;nan;99472.25;5059479;28;20197;-83
2023/06/01 05:26:02;;;;;;;4.57;4.00;;;;;;;18.95;nan;99464.59;5064689;28;20287;-82
2023/06/01 05:28:35;;;;;;;6.13;4.20;;;;;;;19.01;nan;99463.50;5062444;28;20289;-82
2023/06/01 05:31:04;;;;;;;5.53;3.57;;;;;;;19.19;nan;99462.03;5054964;28;20202;-82
2023/06/01 05:33:36;;;;;;;3.90;3.50;;;;;;;19.37;nan;99464.13;5046961;28;20197;-81
2023/06/01 05:36:04;;;;;;;5.63;3.70;;;;;;;19.40;nan;99465.47;5046382;28;20670;-82
2023/06/01 05:38:30;;;;;;;5.33;3.53;;;;;;;19.62;nan;99460.47;5046794;28;20206;-81
2023/06/01 05:40:57;;;;;;;6.57;3.40;;;;;;;19.78;nan;99462.75;5056173;28;20190;-82
2023/06/01 05:43:24;;;;;;;4.87;3.80;;;;;;;19.91;nan;99464.03;5058973;28;20260;-82
2023/06/01 05:45:51;;;;;;;4.97;3.30;;;;;;;20.04;nan;99470.72;5052617;28;20239;-81
2023/06/01 05:48:18;;;;;;;5.00;3.70;;;;;;;20.20;nan;99466.78;5064217;28;20193;-82
2023/06/01 05:50:53;;;;;;;5.33;3.80;;;;;;;20.32;nan;99459.06;5047793;28;20193;-82
2023/06/01 05:53:24;;;;;;;4.20;3.60;;;;;;;20.50;nan;99461.06;5048581;28;20200;-79
2023/06/01 05:55:51;;;;;;;3.90;3.30;;;;;;;20.59;nan;99464.78;5047896;28;20195;-79
2023/06/01 05:58:19;;;;;;;4.83;3.57;;;;;;;20.80;nan;99464.53;5051264;28;20228;-79
2023/06/01 06:00:46;;;;;;;5.23;3.63;;;;;;;20.80;nan;99464.53;5057405;28;20238;-80
2023/06/01 06:03:13;;;;;;;5.80;3.77;;;;;;;21.00;nan;99472.44;5055416;28;20195;-79
2023/06/01 06:05:40;;;;;;;4.27;3.50;;;;;;;21.19;nan;99476.06;5070929;28;20559;-79
2023/06/01 06:08:07;;;;;;;5.90;3.77;;;;;;;21.31;nan;99472.91;5061138;28;20768;-79
2023/06/01 06:10:33;;;;;;;5.43;3.63;;;;;;;21.38;nan;99471.44;5073659;28;20193;-79
2023/06/01 06:13:00;;;;;;;4.43;3.60;;;;;;;21.56;nan;99477.19;5073247;28;20189;-81
2023/06/01 06:15:27;;;;;;;4.60;3.10;;;;;;;21.73;nan;99478.28;5073500;28;20189;-80
2023/06/01 06:17:53;;;;;;;6.77;3.57;;;;;;;21.35;nan;99468.50;5063897;28;20200;-79
2023/06/01 06:20:21;;;;;;;4.97;3.70;;;;;;;21.72;nan;99471.19;5060130;28;20211;-80
2023/06/01 06:22:52;;;;;;;5.10;3.20;;;;;;;21.50;nan;99471.81;5071468;28;20195;-80
2023/06/01 06:25:19;;;;;;;6.23;3.00;;;;;;;21.66;nan;99480.56;5070422;28;20628;-80
2023/06/01 06:27:46;;;;;;;4.80;2.83;;;;;;;21.73;nan;99483.75;5050905;28;20193;-85
2023/06/01 06:30:13;;;;;;;6.13;3.10;;;;;;;21.83;nan;99478.13;5051338;28;20200;-81
2023/06/01 06:32:40;;;;;;;4.77;3.00;;;;;;;22.07;nan;99480.75;5048761;28;20197;-81
2023/06/01 06:35:08;;;;;;;5.38;3.10;;;;;;;22.19;nan;99474.84;5042851;28;20182;-80
2023/06/01 06:37:35;;;;;;;5.45;3.20;;;;;;;22.42;nan;99483.97;5045741;28;20197;-81
2023/06/01 06:40:03;;;;;;;4.47;2.80;;;;;;;22.45;nan;99472.44;5051838;28;20189;-80
2023/06/01 06:42:30;;;;;;;5.32;3.20;;;;;;;22.24;nan;99466.56;5052864;28;20351;-81
2023/06/01 06:44:57;;;;;;;6.40;3.25;;;;;;;21.97;nan;99467.31;5052499;28;20213;-81
2023/06/01 06:47:24;;;;;;;5.82;3.28;;;;;;;22.22;nan;99461.38;5060047;28;20192;-81
2023/06/01 06:49:52;;;;;;;7.65;3.80;;;;;;;21.94;nan;99465.97;5064084;28;20768;-81
2023/06/01 06:52:19;;;;;;;3.43;3.13;;;;;;;21.90;nan;99467.63;5061561;28;20213;-84
2023/06/01 06:54:46;;;;;;;4.80;3.00;;;;;;;22.18;nan;99465.84;5053746;28;20191;-83
2023/06/01 06:57:12;;;;;;;6.63;3.20;;;;;;;22.34;nan;99472.66;5053360;28;20185;-83
2023/06/01 06:59:39;;;;;;;4.97;2.70;;;;;;;22.40;nan;99468.69;5054900;28;20181;-84
2023/06/01 07:02:06;;;;;;;7.40;3.00;;;;;;;22.60;nan;99464.78;5053655;28;20182;-82
2023/06/01 07:04:33;;;;;;;5.35;3.50;;;;;;;22.60;nan;99467.53;5053289;28;20313;-82
2023/06/01 07:07:00;;;;;;;7.82;3.15;;;;;;;22.75;nan;99467.25;5053461;28;20189;-82
2023/06/01 07:09:27;;;;;;;8.70;3.53;;;;;;;22.83;nan;99471.19;5053582;28;20178;-83
2023/06/01 07:11:54;;;;;;;6.82;3.33;;;;;;;23.04;nan;99461.47;5054094;28;20663;-84
2023/06/01 07:14:20;;;;;;;7.43;3.22;;;;;;;23.12;nan;99471.69;5052182;28;20198;-84
2023/06/01 07:16:47;;;;;;;7.00;3.80;;;;;;;23.04;nan;99466.13;5053492;28;20197;-83
2023/06/01 07:19:14;;;;;;;7.82;3.38;;;;;;;23.14;nan;99468.66;5053283;28;20195;-84
2023/06/01 07:21:41;;;;;;;7.18;3.58;;;;;;;23.25;nan;99470.03;5066112;28;20573;-83
2023/06/01 07:24:08;;;;;;;14.10;3.63;;;;;;;23.01;nan;99467.53;5054510;28;20208;-84
2023/06/01 07:26:35;;;;;;;6.53;3.42;;;;;;;23.20;nan;99467.41;5050059;28;20232;-83
2023/06/01 07:29:03;;;;;;;8.02;3.45;;;;;;;22.75;nan;99477.38;5052263;28;20240;-84
2023/06/01 07:31:31;;;;;;;5.00;3.20;;;;;;;23.01;nan;99472.19;5054711;28;20192;-84
2023/06/01 07:33:58;;;;;;;7.38;3.22;;;;;;;23.36;nan;99478.84;5050464;28;20180;-83
2023/06/01 07:36:26;;;;;;;5.55;3.30;;;;;;;23.50;nan;99466.78;5041854;28;20199;-84
2023/06/01 07:38:52;;;;;;;5.22;3.10;;;;;;;23.73;nan;99473.09;5056474;28;20191;-84
2023/06/01 07:41:19;;;;;;;4.63;3.28;;;;;;;23.90;nan;99467.72;5056461;28;20198;-84
2023/06/01 07:43:46;;;;;;;6.30;3.47;;;;;;;24.02;nan;99462.53;5055362;28;20251;-83
2023/06/01 07:46:13;;;;;;;7.95;3.97;;;;;;;24.19;nan;99461.84;5051486;28;20218;-83
2023/06/01 07:48:40;;;;;;;4.93;2.90;;;;;;;24.30;nan;99463.19;5051519;28;20575;-83
2023/06/01 07:51:07;;;;;;;6.22;2.90;;;;;;;24.31;nan;99459.31;5052890;28;20185;-84
2023/06/01 07:53:33;;;;;;;7.47;3.35;;;;;;;24.39;nan;99458.56;5052986;28;20194;-83
2023/06/01 07:56:01;;;;;;;8.13;3.30;;;;;;;24.41;nan;99455.50;5051567;28;20197;-83
2023/06/01 07:58:28;;;;;;;5.22;3.17;;;;;;;24.42;nan;99460.69;5052240;28;20194;-83
2023/06/01 08:00:55;;;;;;;6.38;3.65;;;;;;;24.59;nan;99456.41;5054413;28;20191;-83
2023/06/01 08:03:25;;;;;;;7.05;3.03;;;;;;;24.06;nan;99451.75;5060818;28;20184;-84
2023/06/01 08:05:57;;;;;;;6.00;3.40;;;;;;;24.49;nan;99449.28;5052684;28;20644;-83
2023/06/01 08:08:24;;;;;;;7.72;3.15;;;;;;;24.26;nan;99445.78;5060713;28;20231;-82
2023/06/01 08:10:51;;;;;;;14.45;3.40;;;;;;;24.20;nan;99441.56;5055157;28;20201;-82
2023/06/01 08:13:20;;;;;;;10.15;3.25;;;;;;;24.22;nan;99441.22;5057478;28;20191;-81
2023/06/01 08:15:47;;;;;;;14.02;3.50;;;;;;;24.47;nan;99443.31;5064352;28;20587;-82
2023/06/01 08:18:14;;;;;;;9.13;3.17;;;;;;;24.73;nan;99441.47;5059209;28;20203;-81
2023/06/01 08:20:42;;;;;;;10.73;3.22;;;;;;;24.77;nan;99442.47;5051703;28;20178;-86
2023/06/01 08:23:09;;;;;;;11.55;3.13;;;;;;;25.05;nan;99440.31;5046412;28;20193;-83
2023/06/01 08:25:36;;;;;;;9.00;3.25;;;;;;;25.26;nan;99440.50;5048052;28;20204;-82
2023/06/01 08:28:03;;;;;;;7.95;3.30;;;;;;;25.41;nan;99437.28;5043598;28;20186;-82
2023/06/01 08:30:31;;;;;;;8.57;3.47;;;;;;;25.55;nan;99443.44;5051747;28;20186;-80
2023/06/01 08:32:57;;;;;;;10.20;2.83;;;;;;;25.69;nan;99441.34;5063975;28;20188;-81
2023/06/01 08:35:25;;;;;;;6.10;3.38;;;;;;;25.09;nan;99432.25;5072205;28;20196;-79
2023/06/01 08:37:52;;;;;;;8.43;3.20;;;;;;;25.28;nan;99436.31;5046197;28;20189;-81
2023/06/01 08:40:18;;;;;;;7.30;3.20;;;;;;;25.45;nan;99435.50;5058618;28;20596;-81
2023/06/01 08:42:45;;;;;;;9.68;3.33;;;;;;;25.30;nan;99436.78;5057744;28;20758;-82
2023/06/01 08:45:13;;;;;;;8.65;3.53;;;;;;;25.04;nan;99427.72;5057596;28;20205;-81
2023/06/01 08:47:41;;;;;;;8.05;2.95;;;;;;;25.47;nan;99426.97;5049877;28;20205;-81
2023/06/01 08:50:09;;;;;;;8.73;3.63;;;;;;;24.96;nan;99426.56;5050049;28;20191;-82
2023/06/01 08:52:37;;;;;;;6.70;3.05;;;;;;;25.46;nan;99426.16;5059187;28;20188;-81
2023/06/01 08:55:05;;;;;;;4.93;3.17;;;;;;;25.59;nan;99422.47;5047414;28;20183;-82
2023/06/01 08:57:32;;;;;;;6.63;3.22;;;;;;;25.85;nan;99420.50;5052437;28;20601;-82
2023/06/01 08:59:59;;;;;;;4.85;3.20;;;;;;;25.57;nan;99421.19;5046391;28;20602;-81
2023/06/01 09:02:27;;;;;;;5.05;3.00;;;;;;;25.75;nan;99420.06;5056443;28;20194;-81
2023/06/01 09:04:54;;;;;;;5.25;2.70;;;;;;;25.47;nan;99418.75;5048872;28;20687;-82
2023/06/01 09:07:22;;;;;;;4.82;2.85;;;;;;;25.71;nan;99413.59;5054923;28;20815;-81
2023/06/01 09:09:49;;;;;;;4.68;3.42;;;;;;;25.78;nan;99411.16;5048483;28;20770;-81
2023/06/01 09:12:17;;;;;;;6.25;3.05;;;;;;;25.91;nan;99414.84;5053164;28;20204;-82
2023/06/01 09:14:44;;;;;;;6.22;3.47;;;;;;;25.81;nan;99407.75;5053018;28;20189;-82
2023/06/01 09:17:15;;;;;;;6.57;3.50;;;;;;;25.47;nan;99402.28;5058833;28;20192;-82
2023/06/01 09:19:44;;;;;;;4.32;3.00;;;;;;;25.92;nan;99397.25;5063307;28;20204;-82
2023/06/01 09:22:12;;;;;;;5.15;2.60;;;;;;;26.05;nan;99399.00;5067487;28;20197;-81
2023/06/01 09:24:42;;;;;;;6.25;2.95;;;;;;;26.00;nan;99391.72;5058999;28;20722;-79
2023/06/01 09:27:09;;;;;;;3.63;2.85;;;;;;;26.29;nan;99391.84;5058376;28;20201;-80
2023/06/01 09:29:36;;;;;;;8.98;3.03;;;;;;;26.16;nan;99395.56;5054401;28;20545;-80
2023/06/01 09:32:03;;;;;;;6.93;3.10;;;;;;;26.20;nan;99392.97;5055028;28;20240;-79
2023/06/01 09:34:30;;;;;;;4.57;2.60;;;;;;;25.94;nan;99395.00;5056130;28;20182;-80
2023/06/01 09:37:05;;;;;;;3.58;2.58;;;;;;;26.15;nan;99385.72;5061315;28;20213;-80
2023/06/01 09:39:33;;;;;;;4.10;2.70;;;;;;;26.42;nan;99390.00;5054941;28;20192;-79
2023/06/01 09:42:02;;;;;;;3.83;2.58;;;;;;;26.56;nan;99384.28;5054453;28;20643;-79
2023/06/01 09:44:30;;;;;;;4.38;2.50;;;;;;;26.59;nan;99391.88;5056007;28;20652;-80
2023/06/01 09:46:59;;;;;;;3.55;2.38;;;;;;;25.70;nan;99384.56;5056038;28;20549;-81
2023/06/01 09:49:28;;;;;;;3.55;2.53;;;;;;;26.10;nan;99382.34;5057902;28;20216;-81
2023/06/01 09:52:16;;;;;;;3.33;2.30;;;;;;;26.46;nan;99382.72;5061299;28;20246;-80
2023/06/01 09:54:50;;;;;;;2.67;2.45;;;;;;;26.45;nan;99375.63;5062940;28;20276;-80
2023/06/01 09:57:22;;;;;;;4.38;2.50;;;;;;;26.69;nan;99378.56;5064900;28;20200;-79
2023/06/01 09:59:49;;;;;;;5.95;2.33;;;;;;;26.90;nan;99364.06;5060119;28;20201;-81
2023/06/01 10:02:22;;;;;;;2.20;2.00;;;;;;;26.97;nan;99361.63;5061282;28;20193;-81
2023/06/01 10:04:52;;;;;;;3.58;2.50;;;;;;;27.28;nan;99359.25;5054237;28;20647;-80
2023/06/01 10:07:20;;;;;;;3.55;1.83;;;;;;;27.52;nan;99362.16;5054164;28;20280;-80
2023/06/01 10:09:54;;;;;;;5.85;2.20;;;;;;;27.64;nan;99361.38;5055382;28;20182;-81
2023/06/01 10:12:22;;;;;;;3.92;2.00;;;;;;;27.76;nan;99355.94;5053408;28;20200;-80
2023/06/01 10:14:50;;;;;;;2.58;2.05;;;;;;;27.89;nan;99349.31;5056266;28;20193;-79
2023/06/01 10:17:20;;;;;;;5.22;2.55;;;;;;;28.09;nan;99357.84;5054577;28;20281;-81
2023/06/01 10:19:48;;;;;;;4.53;2.38;;;;;;;28.09;nan;99353.13;5056735;28;20186;-80
2023/06/01 10:22:15;;;;;;;5.07;2.28;;;;;;;27.95;nan;99339.66;5062805;28;20202;-80
2023/06/01 10:24:43;;;;;;;3.67;2.45;;;;;;;28.03;nan;99343.50;5063462;28;20635;-80
2023/06/01 10:27:27;;;;;;;3.75;2.40;;;;;;;27.85;nan;99350.34;5066820;28;20570;-81
2023/06/01 10:29:54;;;;;;;4.05;2.53;;;;;;;27.72;nan;99340.41;5064033;28;20192;-81
2023/06/01 10:32:36;;;;;;;3.25;2.50;;;;;;;27.98;nan;99338.19;5063210;28;20239;-81
2023/06/01 10:35:06;;;;;;;4.32;2.30;;;;;;;27.98;nan;99336.25;5053537;28;20726;-80
2023/06/01 10:37:33;;;;;;;4.32;2.58;;;;;;;28.16;nan;99341.56;5072258;28;20188;-82
2023/06/01 10:40:16;;;;;;;3.50;2.83;;;;;;;28.26;nan;99338.38;5065005;28;20183;-81
2023/06/01 10:42:44;;;;;;;4.10;2.92;;;;;;;28.05;nan;99327.41;5060603;28;20267;-79
2023/06/01 10:45:37;;;;;;;4.60;2.47;;;;;;;27.33;nan;99328.00;5069916;28;20194;-80
2023/06/01 10:48:05;;;;;;;6.18;2.75;;;;;;;27.67;nan;99324.91;5069615;28;20192;-79
2023/06/01 10:50:33;;;;;;;5.63;2.67;;;;;;;27.86;nan;99321.63;5068775;28;20197;-82
2023/06/01 10:53:23;;;;;;;4.97;2.50;;;;;;;27.47;nan;99323.81;5069897;28;20595;-80
2023/06/01 10:56:23;;;;;;;5.63;2.75;;;;;;;27.86;nan;99314.19;5069799;28;20236;-79
2023/06/01 10:59:08;;;;;;;5.55;2.75;;;;;;;27.05;nan;99314.81;5051022;28;20186;-81
2023/06/01 11:01:45;;;;;;;3.67;2.60;;;;;;;27.56;nan;99305.31;5057026;28;20294;-80
2023/06/01 11:04:13;;;;;;;7.55;2.70;;;;;;;27.84;nan;99302.75;5054539;28;20211;-80
2023/06/01 11:06:42;;;;;;;2.97;2.33;;;;;;;28.20;nan;99299.22;5055378;28;20214;-80
2023/06/01 11:09:10;;;;;;;3.42;3.13;;;;;;;28.11;nan;99300.50;5052995;28;20700;-79
2023/06/01 11:11:52;;;;;;;4.07;2.90;;;;;;;28.19;nan;99292.13;5060844;28;20193;-79
2023/06/01 11:14:23;;;;;;;3.95;2.88;;;;;;;28.26;nan;99289.59;5060134;28;20535;-79
2023/06/01 11:16:54;;;;;;;3.60;3.08;;;;;;;28.35;nan;99290.28;5060360;28;20628;-80
2023/06/01 11:19:25;;;;;;;4.93;3.33;;;;;;;28.44;nan;99290.97;5049286;28;20205;-80
2023/06/01 11:22:01;;;;;;;4.55;3.10;;;;;;;28.62;nan;99294.28;5062375;28;20210;-79
2023/06/01 11:24:35;;;;;;;3.58;2.80;;;;;;;28.91;nan;99287.69;5064964;28;20213;-80
2023/06/01 11:27:09;;;;;;;5.30;3.20;;;;;;;29.03;nan;99284.06;5051873;28;20745;-80
2023/06/01 11:29:37;;;;;;;4.38;2.97;;;;;;;29.22;nan;99279.53;5063508;28;20556;-79
2023/06/01 11:32:05;;;;;;;5.20;2.95;;;;;;;29.30;nan;99277.81;5062242;28;20238;-81
2023/06/01 11:34:40;;;;;;;5.47;3.13;;;;;;;29.45;nan;99270.72;5063116;28;20185;-81
2023/06/01 11:37:15;;;;;;;4.60;3.00;;;;;;;29.56;nan;99272.59;5064419;28;20552;-79
2023/06/01 11:39:42;;;;;;;4.60;3.00;;;;;;;30.00;nan;99269.81;5058354;28;20273;-80
2023/06/01 11:42:16;;;;;;;4.40;3.30;;;;;;;30.23;nan;99265.25;5063777;28;20185;-79
2023/06/01 11:44:56;;;;;;;3.95;3.08;;;;;;;30.45;nan;99258.25;5056560;28;20277;-80
2023/06/01 11:47:27;;;;;;;8.02;3.50;;;;;;;30.62;nan;99255.09;5061706;28;20205;-79
2023/06/01 11:49:55;;;;;;;3.85;3.10;;;;;;;30.61;nan;99250.75;5062917;28;20198;-80
2023/06/01 11:52:22;;;;;;;4.53;3.17;;;;;;;30.86;nan;99245.75;5057033;28;20181;-81
2023/06/01 11:54:51;;;;;;;4.80;3.08;;;;;;;30.74;nan;99245.91;5059696;28;20640;-81